Time;durP1;ratioP1;P1;durP2;ratioP2;P2;SDS_P1;SDS_P2;PMS_P1;PMS_P2;Temp;Humidity;BMP_temperature;BMP_pressure;BME280_temperature;BME280_humidity;BME280_pressure;Samples;Min_cycle;Max_cycle;Signal;HPM_P1;HPM_P2
2023/10/07 00:02:12;;;;;;;12.00;3.93;;;;;;;;;;5116657;28;20411;-80
2023/10/07 00:04:39;;;;;;;10.90;4.30;;;;;;;;;;5116104;28;20233;-78
2023/10/07 00:07:10;;;;;;;11.20;3.73;;;;;;;;;;5116628;28;20457;-78
2023/10/07 00:09:36;;;;;;;10.43;3.70;;;;;;;;;;5116645;28;20403;-79
2023/10/07 00:12:02;;;;;;;7.50;2.63;;;;;;;;;;5098204;28;20501;-80
2023/10/07 00:14:30;;;;;;;7.23;2.97;;;;;;;;;;5115417;28;20779;-78
2023/10/07 00:16:57;;;;;;;7.10;3.30;;;;;;;;;;5113901;28;20808;-79
2023/10/07 00:19:23;;;;;;;5.40;2.60;;;;;;;;;;5116032;28;20395;-79
2023/10/07 00:22:40;;;;;;;5.73;3.30;;;;;;;;;;5097686;28;20515;-79
2023/10/07 00:24:42;;;;;;;6.07;3.10;;;;;;;;;;5104679;28;20490;-78
2023/10/07 00:27:22;;;;;;;7.83;4.00;;;;;;;;;;5115940;28;20490;-80
2023/10/07 00:29:54;;;;;;;8.90;4.07;;;;;;;;;;5097521;28;20916;-79
2023/10/07 00:32:26;;;;;;;10.10;4.00;;;;;;;;;;5115601;28;20495;-79
2023/10/07 00:34:53;;;;;;;6.77;3.93;;;;;;;;;;5095425;28;20439;-78
2023/10/07 00:37:19;;;;;;;9.33;3.90;;;;;;;;;;5111055;28;20413;-80
2023/10/07 00:39:46;;;;;;;9.37;3.80;;;;;;;;;;5115817;28;20419;-80
2023/10/07 00:42:12;;;;;;;9.77;5.17;;;;;;;;;;5115619;28;20398;-78
2023/10/07 00:44:39;;;;;;;6.70;3.00;;;;;;;;;;5115359;28;20516;-77
2023/10/07 00:49:41;;;;;;;14.47;4.40;;;;;;;;;;5115128;28;20534;-75
2023/10/07 00:52:23;;;;;;;4.33;3.00;;;;;;;;;;5114095;28;20497;-76
2023/10/07 01:00:12;;;;;;;9.23;3.63;;;;;;;;;;5115413;28;20978;-76
2023/10/07 01:02:38;;;;;;;10.57;3.70;;;;;;;;;;5114832;28;20415;-79
2023/10/07 01:05:13;;;;;;;10.07;3.90;;;;;;;;;;5115157;28;20887;-78
2023/10/07 01:07:41;;;;;;;8.27;3.30;;;;;;;;;;5115102;28;20403;-75
2023/10/07 01:12:38;;;;;;;8.80;3.90;;;;;;;;;;5114950;28;20409;-77
2023/10/07 01:15:17;;;;;;;9.47;3.60;;;;;;;;;;5113867;28;20420;-78
2023/10/07 01:17:43;;;;;;;8.67;4.10;;;;;;;;;;5114883;28;20542;-77
2023/10/07 01:20:11;;;;;;;6.13;3.27;;;;;;;;;;5114587;28;20416;-77
2023/10/07 01:22:36;;;;;;;7.40;3.93;;;;;;;;;;5114717;28;20444;-78
2023/10/07 01:25:09;;;;;;;7.63;3.67;;;;;;;;;;5113523;28;20533;-78
2023/10/07 01:27:42;;;;;;;8.80;3.43;;;;;;;;;;5114566;28;20469;-78
2023/10/07 01:30:17;;;;;;;8.03;3.63;;;;;;;;;;5114772;28;20419;-77
2023/10/07 01:33:24;;;;;;;8.70;3.60;;;;;;;;;;5114765;28;20467;-77
2023/10/07 01:35:33;;;;;;;10.37;3.80;;;;;;;;;;5114156;28;20817;-81
2023/10/07 01:37:59;;;;;;;7.37;3.87;;;;;;;;;;5114583;28;20408;-78
2023/10/07 01:40:43;;;;;;;5.70;2.40;;;;;;;;;;5113282;28;21085;-75
2023/10/07 01:43:09;;;;;;;7.07;3.10;;;;;;;;;;5114534;28;20460;-77
2023/10/07 01:45:39;;;;;;;7.60;2.70;;;;;;;;;;5114266;28;20403;-77
2023/10/07 01:48:07;;;;;;;5.47;3.27;;;;;;;;;;5105421;28;20883;-77
2023/10/07 01:50:40;;;;;;;9.07;3.80;;;;;;;;;;5100009;28;20418;-76
2023/10/07 01:53:06;;;;;;;7.40;2.83;;;;;;;;;;5105156;28;20422;-79
2023/10/07 01:55:36;;;;;;;9.33;3.17;;;;;;;;;;5075913;28;20962;-77
2023/10/07 01:58:02;;;;;;;4.93;2.63;;;;;;;;;;5093902;28;20531;-77
2023/10/07 02:00:44;;;;;;;9.33;2.73;;;;;;;;;;5093728;28;20415;-75
2023/10/07 02:03:13;;;;;;;6.07;2.90;;;;;;;;;;5093032;28;20980;-78
2023/10/07 02:05:40;;;;;;;7.97;2.97;;;;;;;;;;5093687;28;20512;-76
2023/10/07 02:08:11;;;;;;;8.20;3.50;;;;;;;;;;5093595;28;20403;-79
2023/10/07 02:10:40;;;;;;;5.13;2.97;;;;;;;;;;5093662;28;20418;-77
2023/10/07 02:13:06;;;;;;;5.83;3.50;;;;;;;;;;5092977;28;20416;-77
2023/10/07 02:15:37;;;;;;;7.10;3.40;;;;;;;;;;5093499;28;20420;-77
2023/10/07 02:18:03;;;;;;;7.40;2.70;;;;;;;;;;5093001;28;20415;-76
2023/10/07 02:20:37;;;;;;;8.17;3.53;;;;;;;;;;5093477;28;20488;-75
2023/10/07 02:23:11;;;;;;;6.87;3.57;;;;;;;;;;5093307;28;21037;-76
2023/10/07 02:25:38;;;;;;;5.13;3.60;;;;;;;;;;5093399;28;20417;-76
2023/10/07 02:28:05;;;;;;;7.80;3.27;;;;;;;;;;5093348;28;20401;-77
2023/10/07 02:30:38;;;;;;;6.27;3.60;;;;;;;;;;5097682;28;20508;-77
2023/10/07 02:33:08;;;;;;;5.87;3.43;;;;;;;;;;5093543;28;20424;-77
2023/10/07 02:35:36;;;;;;;5.53;3.77;;;;;;;;;;5093116;28;20494;-78
2023/10/07 02:38:03;;;;;;;5.23;3.50;;;;;;;;;;5093271;28;20407;-76
2023/10/07 02:40:35;;;;;;;14.60;4.63;;;;;;;;;;5093187;28;20407;-77
2023/10/07 02:43:07;;;;;;;8.13;3.50;;;;;;;;;;5091919;28;20495;-76
2023/10/07 02:45:39;;;;;;;10.43;3.73;;;;;;;;;;5093072;28;20417;-78
2023/10/07 02:48:10;;;;;;;4.67;3.03;;;;;;;;;;5092695;28;20969;-77
2023/10/07 02:50:42;;;;;;;3.37;1.97;;;;;;;;;;5111010;28;20492;-77
2023/10/07 02:53:14;;;;;;;8.00;3.17;;;;;;;;;;5113305;28;20919;-77
2023/10/07 02:55:58;;;;;;;6.07;2.93;;;;;;;;;;5113283;28;20409;-77
2023/10/07 02:58:32;;;;;;;6.43;3.13;;;;;;;;;;5113265;28;20404;-74
2023/10/07 03:01:10;;;;;;;5.60;2.90;;;;;;;;;;5113324;28;21053;-79
2023/10/07 03:03:38;;;;;;;4.87;1.37;;;;;;;;;;5094235;28;20491;-76
2023/10/07 03:06:07;;;;;;;6.90;3.00;;;;;;;;;;5113123;28;20923;-79
2023/10/07 03:08:40;;;;;;;3.60;2.17;;;;;;;;;;5113132;28;20411;-76
2023/10/07 03:11:11;;;;;;;5.00;1.90;;;;;;;;;;5113141;28;20415;-79
2023/10/07 03:13:45;;;;;;;5.83;2.30;;;;;;;;;;5094911;28;20841;-79
2023/10/07 03:18:47;;;;;;;7.53;3.20;;;;;;;;;;5112750;28;20419;-75
2023/10/07 03:21:15;;;;;;;5.77;2.67;;;;;;;;;;5113065;28;20500;-76
2023/10/07 03:23:47;;;;;;;8.13;2.53;;;;;;;;;;5112439;28;20480;-77
2023/10/07 03:26:17;;;;;;;4.30;2.97;;;;;;;;;;5116411;28;20487;-76
2023/10/07 03:28:53;;;;;;;6.20;2.87;;;;;;;;;;5117059;28;20825;-77
2023/10/07 03:31:34;;;;;;;5.30;2.67;;;;;;;;;;5117173;28;20452;-76
2023/10/07 03:34:07;;;;;;;5.93;2.60;;;;;;;;;;5116688;28;20465;-77
2023/10/07 03:37:04;;;;;;;5.93;2.63;;;;;;;;;;5116975;28;20397;-78
2023/10/07 03:39:44;;;;;;;5.03;2.53;;;;;;;;;;5117067;28;20489;-74
2023/10/07 03:42:14;;;;;;;4.23;2.50;;;;;;;;;;5116604;28;20439;-73
2023/10/07 03:44:40;;;;;;;4.70;2.83;;;;;;;;;;5116793;28;20564;-79
2023/10/07 03:47:11;;;;;;;7.50;4.20;;;;;;;;;;5116781;28;20992;-77
2023/10/07 03:49:40;;;;;;;8.63;2.37;;;;;;;;;;5116493;28;20551;-77
2023/10/07 03:52:08;;;;;;;5.63;3.00;;;;;;;;;;5116585;28;20405;-77
2023/10/07 03:54:34;;;;;;;8.63;3.40;;;;;;;;;;5116365;28;20415;-78
2023/10/07 03:57:00;;;;;;;6.10;2.73;;;;;;;;;;5116661;28;20412;-80
2023/10/07 03:59:27;;;;;;;3.57;1.70;;;;;;;;;;5116661;28;20408;-79
2023/10/07 04:01:56;;;;;;;4.30;2.60;;;;;;;;;;5116657;28;20405;-79
2023/10/07 04:04:23;;;;;;;4.00;2.77;;;;;;;;;;5097526;28;20486;-78
2023/10/07 04:06:49;;;;;;;3.27;2.13;;;;;;;;;;5098113;28;20448;-77
2023/10/07 04:09:16;;;;;;;5.10;1.67;;;;;;;;;;5116326;28;21004;-78
2023/10/07 04:11:48;;;;;;;2.33;1.23;;;;;;;;;;5116390;28;20182;-81
2023/10/07 04:14:30;;;;;;;2.53;1.20;;;;;;;;;;5116247;28;20561;-77
2023/10/07 04:16:59;;;;;;;2.20;1.03;;;;;;;;;;5116286;28;20447;-79
2023/10/07 04:21:51;;;;;;;2.10;1.40;;;;;;;;;;5116047;28;20930;-77
2023/10/07 04:24:23;;;;;;;4.47;1.33;;;;;;;;;;5116033;28;20467;-79
2023/10/07 04:26:54;;;;;;;2.30;0.80;;;;;;;;;;5116122;28;20763;-79
2023/10/07 04:29:21;;;;;;;1.00;0.20;;;;;;;;;;5116009;28;20417;-78
2023/10/07 04:31:47;;;;;;;1.03;0.20;;;;;;;;;;5115803;28;20405;-77
2023/10/07 04:34:18;;;;;;;0.50;0.10;;;;;;;;;;5115598;28;20448;-75
2023/10/07 04:39:37;;;;;;;0.87;0.10;;;;;;;;;;5115848;28;20955;-77
2023/10/07 04:42:05;;;;;;;3.27;0.20;;;;;;;;;;5115794;28;20411;-76
2023/10/07 04:50:15;;;;;;;1.93;0.20;;;;;;;;;;5115717;28;20402;-77
2023/10/07 04:52:50;;;;;;;1.73;0.20;;;;;;;;;;5115702;28;20408;-78
2023/10/07 04:55:19;;;;;;;0.50;0.20;;;;;;;;;;5115527;28;20418;-77
2023/10/07 05:00:35;;;;;;;0.93;0.20;;;;;;;;;;5115441;28;20419;-77
2023/10/07 05:03:02;;;;;;;1.53;0.20;;;;;;;;;;5114805;28;20499;-76
2023/10/07 05:05:30;;;;;;;0.93;0.50;;;;;;;;;;5115169;28;20452;-80
2023/10/07 05:08:08;;;;;;;1.10;0.20;;;;;;;;;;5115356;28;20403;-81
2023/10/07 05:10:38;;;;;;;0.83;0.20;;;;;;;;;;5115202;28;20502;-78
2023/10/07 05:13:07;;;;;;;1.57;0.20;;;;;;;;;;5115196;28;20417;-81
2023/10/07 05:15:34;;;;;;;1.40;0.30;;;;;;;;;;5115021;28;20413;-80
2023/10/07 05:18:01;;;;;;;2.90;0.37;;;;;;;;;;5114737;28;20403;-80
2023/10/07 05:20:28;;;;;;;2.03;0.20;;;;;;;;;;5115068;28;20413;-81
2023/10/07 05:22:55;;;;;;;3.47;0.30;;;;;;;;;;5114886;28;20397;-81
2023/10/07 05:25:21;;;;;;;1.67;0.30;;;;;;;;;;5114953;28;20409;-81
2023/10/07 05:27:47;;;;;;;2.50;0.20;;;;;;;;;;5114827;28;20411;-81
2023/10/07 05:30:15;;;;;;;4.60;0.50;;;;;;;;;;5096503;28;20447;-81
2023/10/07 05:32:41;;;;;;;3.57;0.70;;;;;;;;;;5114459;28;20408;-80
2023/10/07 05:35:08;;;;;;;3.50;0.43;;;;;;;;;;5114685;28;20734;-81
2023/10/07 05:37:33;;;;;;;3.00;0.50;;;;;;;;;;5114637;28;20887;-80
2023/10/07 05:39:59;;;;;;;5.53;0.77;;;;;;;;;;5113760;28;20439;-80
2023/10/07 05:42:25;;;;;;;4.83;0.50;;;;;;;;;;5114673;28;20198;-81
2023/10/07 05:44:52;;;;;;;4.57;0.80;;;;;;;;;;5114657;28;20471;-82
2023/10/07 05:47:18;;;;;;;4.63;0.83;;;;;;;;;;5095347;28;20414;-81
2023/10/07 05:49:44;;;;;;;3.00;0.77;;;;;;;;;;5114680;28;20779;-81
2023/10/07 05:52:13;;;;;;;4.73;0.50;;;;;;;;;;5114629;28;20404;-82
2023/10/07 05:54:40;;;;;;;3.93;0.70;;;;;;;;;;5114407;28;20828;-79
2023/10/07 05:57:08;;;;;;;8.60;0.97;;;;;;;;;;5114613;28;20456;-80
2023/10/07 05:59:34;;;;;;;5.87;1.23;;;;;;;;;;5114396;28;20407;-81
2023/10/07 06:02:01;;;;;;;8.17;0.97;;;;;;;;;;5096116;28;20930;-81
2023/10/07 06:04:28;;;;;;;9.33;1.07;;;;;;;;;;5113664;28;20230;-80
2023/10/07 06:06:54;;;;;;;7.70;0.90;;;;;;;;;;5114342;28;20411;-75
2023/10/07 06:09:21;;;;;;;6.10;1.10;;;;;;;;;;5114300;28;20413;-81
2023/10/07 06:11:50;;;;;;;6.27;1.10;;;;;;;;;;5114226;28;20403;-81
2023/10/07 06:14:18;;;;;;;5.47;1.30;;;;;;;;;;5113880;28;20878;-81
2023/10/07 06:16:44;;;;;;;6.40;1.23;;;;;;;;;;5113603;28;20398;-81
2023/10/07 06:19:13;;;;;;;2.77;0.83;;;;;;;;;;5113734;28;20417;-81
2023/10/07 06:21:44;;;;;;;7.83;1.67;;;;;;;;;;5114083;28;20422;-81
2023/10/07 06:24:13;;;;;;;5.20;1.30;;;;;;;;;;5113991;28;20476;-81
2023/10/07 06:26:43;;;;;;;7.83;1.00;;;;;;;;;;5114034;28;20540;-81
2023/10/07 06:29:18;;;;;;;6.50;1.10;;;;;;;;;;5113320;28;20434;-81
2023/10/07 06:31:48;;;;;;;3.60;0.70;;;;;;;;;;5113224;28;20443;-81
2023/10/07 06:34:15;;;;;;;3.00;0.57;;;;;;;;;;5111313;28;20408;-81
2023/10/07 06:36:41;;;;;;;5.50;0.67;;;;;;;;;;5112216;28;20478;-81
2023/10/07 06:39:10;;;;;;;5.87;0.40;;;;;;;;;;5108196;28;20418;-79
2023/10/07 06:41:38;;;;;;;5.13;0.57;;;;;;;;;;5093426;28;20412;-78
2023/10/07 06:44:08;;;;;;;3.87;0.50;;;;;;;;;;5093326;28;20540;-77
2023/10/07 06:46:45;;;;;;;3.50;0.30;;;;;;;;;;5093417;28;20812;-78
2023/10/07 06:49:18;;;;;;;2.33;0.50;;;;;;;;;;5093125;28;20413;-77
2023/10/07 06:51:45;;;;;;;7.50;0.80;;;;;;;;;;5093285;28;20494;-75
2023/10/07 06:54:13;;;;;;;2.67;0.30;;;;;;;;;;5092046;28;20417;-77
2023/10/07 06:56:39;;;;;;;5.77;0.60;;;;;;;;;;5093244;28;20404;-82
2023/10/07 06:59:06;;;;;;;5.23;0.60;;;;;;;;;;5092923;28;20411;-77
2023/10/07 07:01:55;;;;;;;6.40;1.20;;;;;;;;;;5091475;28;20232;-76
2023/10/07 07:04:21;;;;;;;5.30;1.10;;;;;;;;;;5092350;28;21091;-74
2023/10/07 07:06:57;;;;;;;5.10;0.90;;;;;;;;;;5093001;28;20403;-77
2023/10/07 07:09:41;;;;;;;5.27;0.53;;;;;;;;;;5093075;28;20454;-80
2023/10/07 07:12:11;;;;;;;3.53;0.80;;;;;;;;;;5093075;28;20404;-80
2023/10/07 07:14:42;;;;;;;7.87;0.90;;;;;;;;;;5092871;28;20412;-80
2023/10/07 07:22:44;;;;;;;5.27;0.60;;;;;;;;;;5110953;28;20415;-79
2023/10/07 07:25:11;;;;;;;1.90;0.30;;;;;;;;;;5094418;28;20477;-80
2023/10/07 07:27:38;;;;;;;7.17;0.53;;;;;;;;;;5112508;28;20409;-81
2023/10/07 07:30:04;;;;;;;2.63;0.40;;;;;;;;;;5112722;28;20445;-79
2023/10/07 07:32:35;;;;;;;8.50;0.60;;;;;;;;;;5093905;28;20423;-81
2023/10/07 07:35:04;;;;;;;6.17;0.87;;;;;;;;;;5112320;28;20412;-81
2023/10/07 07:37:31;;;;;;;3.60;0.53;;;;;;;;;;5111987;28;20762;-79
2023/10/07 07:39:59;;;;;;;3.60;0.40;;;;;;;;;;5094083;28;20420;-78
2023/10/07 07:42:32;;;;;;;3.43;0.50;;;;;;;;;;5112233;28;20408;-84
2023/10/07 07:44:57;;;;;;;2.90;0.63;;;;;;;;;;5112585;28;20825;-84
2023/10/07 07:47:26;;;;;;;3.60;0.60;;;;;;;;;;5112151;28;20534;-83
2023/10/07 07:49:53;;;;;;;3.50;0.40;;;;;;;;;;5112603;28;20181;-83
2023/10/07 07:52:19;;;;;;;5.37;0.73;;;;;;;;;;5112686;28;20453;-84
2023/10/07 07:54:45;;;;;;;1.80;0.33;;;;;;;;;;5112972;28;20403;-83
2023/10/07 07:57:12;;;;;;;4.73;0.47;;;;;;;;;;5112831;28;20447;-84
2023/10/07 07:59:38;;;;;;;7.70;0.47;;;;;;;;;;5112371;28;20399;-84
2023/10/07 08:02:16;;;;;;;3.07;0.40;;;;;;;;;;5112034;28;20393;-84
2023/10/07 08:05:02;;;;;;;2.90;0.27;;;;;;;;;;5111468;28;20784;-74
2023/10/07 08:07:29;;;;;;;1.63;0.47;;;;;;;;;;5112744;28;20470;-74
2023/10/07 08:09:58;;;;;;;2.77;0.50;;;;;;;;;;5112508;28;20419;-74
2023/10/07 08:12:33;;;;;;;4.40;0.30;;;;;;;;;;5116441;28;20739;-74
2023/10/07 08:15:06;;;;;;;3.33;0.53;;;;;;;;;;5116624;28;20407;-74
2023/10/07 08:17:32;;;;;;;2.50;0.37;;;;;;;;;;5116245;28;20406;-82
2023/10/07 08:19:58;;;;;;;2.07;0.70;;;;;;;;;;5116495;28;20933;-74
2023/10/07 08:22:27;;;;;;;3.10;1.30;;;;;;;;;;5098025;28;20177;-75
2023/10/07 08:24:53;;;;;;;1.40;0.30;;;;;;;;;;5116457;28;20623;-74
2023/10/07 08:30:09;;;;;;;2.10;0.50;;;;;;;;;;5116469;28;20509;-74
2023/10/07 08:32:35;;;;;;;1.53;0.20;;;;;;;;;;5115927;28;20399;-74
2023/10/07 08:35:03;;;;;;;2.60;0.20;;;;;;;;;;5116193;28;20456;-77
2023/10/07 08:37:32;;;;;;;2.50;0.30;;;;;;;;;;5116204;28;20442;-80
2023/10/07 08:40:13;;;;;;;2.67;0.60;;;;;;;;;;5116041;28;20410;-74
2023/10/07 08:42:44;;;;;;;0.83;0.50;;;;;;;;;;5097865;28;20781;-80
2023/10/07 08:45:14;;;;;;;2.07;0.20;;;;;;;;;;5115898;28;20467;-74
2023/10/07 08:47:48;;;;;;;1.17;0.20;;;;;;;;;;5115548;28;20416;-74
2023/10/07 08:50:24;;;;;;;2.83;1.50;;;;;;;;;;5115863;28;20825;-75
2023/10/07 08:53:05;;;;;;;1.77;0.60;;;;;;;;;;5115895;28;20408;-74
2023/10/07 08:55:32;;;;;;;3.20;0.70;;;;;;;;;;5115858;28;20465;-74
2023/10/07 08:58:02;;;;;;;1.60;0.50;;;;;;;;;;5115759;28;20419;-74
2023/10/07 09:00:32;;;;;;;1.13;0.40;;;;;;;;;;5115638;28;20415;-73
2023/10/07 09:02:59;;;;;;;1.47;0.30;;;;;;;;;;5115074;28;20521;-76
2023/10/07 09:05:27;;;;;;;2.80;0.20;;;;;;;;;;5115591;28;20812;-74
2023/10/07 09:07:56;;;;;;;1.00;0.20;;;;;;;;;;5115538;28;20898;-74
2023/10/07 09:10:28;;;;;;;1.80;0.40;;;;;;;;;;5115417;28;20501;-80
2023/10/07 09:12:56;;;;;;;1.57;0.30;;;;;;;;;;5115284;28;20443;-84
2023/10/07 09:15:26;;;;;;;1.13;0.20;;;;;;;;;;5115431;28;20473;-79
2023/10/07 09:18:04;;;;;;;1.17;0.30;;;;;;;;;;5115001;28;20738;-74
2023/10/07 09:20:45;;;;;;;2.30;1.27;;;;;;;;;;5115320;28;20417;-74
2023/10/07 09:23:20;;;;;;;0.53;0.20;;;;;;;;;;5115094;28;20485;-82
2023/10/07 09:25:51;;;;;;;0.70;0.33;;;;;;;;;;5115237;28;20425;-84
2023/10/07 09:28:21;;;;;;;0.77;0.20;;;;;;;;;;5115530;28;20437;-76
2023/10/07 09:30:48;;;;;;;0.60;0.20;;;;;;;;;;5115077;28;20912;-74
2023/10/07 09:33:17;;;;;;;0.70;0.23;;;;;;;;;;5114759;28;20400;-74
2023/10/07 09:35:44;;;;;;;0.90;0.20;;;;;;;;;;5114959;28;20480;-74
2023/10/07 09:38:22;;;;;;;0.50;0.20;;;;;;;;;;5115018;28;20462;-74
2023/10/07 09:43:37;;;;;;;1.07;0.30;;;;;;;;;;5114656;28;20488;-74
2023/10/07 09:46:03;;;;;;;0.50;0.20;;;;;;;;;;5096513;28;20955;-74
2023/10/07 09:48:33;;;;;;;0.50;0.20;;;;;;;;;;5114343;28;20415;-74
2023/10/07 09:51:00;;;;;;;1.33;0.20;;;;;;;;;;5114677;28;20421;-84
2023/10/07 09:53:41;;;;;;;0.60;0.10;;;;;;;;;;5114847;28;20415;-75
2023/10/07 09:56:20;;;;;;;0.80;0.20;;;;;;;;;;5114629;28;20413;-74
2023/10/07 09:59:14;;;;;;;0.40;0.20;;;;;;;;;;5114543;28;20403;-77
2023/10/07 10:01:54;;;;;;;1.80;0.20;;;;;;;;;;5113925;28;20547;-74
2023/10/07 10:04:57;;;;;;;0.30;0.10;;;;;;;;;;5114152;28;20807;-74
2023/10/07 10:07:32;;;;;;;1.00;0.20;;;;;;;;;;5030347;28;20440;-74
2023/10/07 10:10:08;;;;;;;0.47;0.20;;;;;;;;;;5103697;28;20773;-74
2023/10/07 10:12:56;;;;;;;0.60;0.20;;;;;;;;;;5096002;28;20903;-74
2023/10/07 10:18:02;;;;;;;0.73;0.20;;;;;;;;;;5113865;28;20404;-76
2023/10/07 10:20:42;;;;;;;0.63;0.20;;;;;;;;;;5114050;28;20463;-74
2023/10/07 10:23:18;;;;;;;1.03;0.20;;;;;;;;;;5114073;28;20400;-75
2023/10/07 10:25:48;;;;;;;0.73;0.10;;;;;;;;;;5114004;28;20766;-76
2023/10/07 10:28:20;;;;;;;0.57;0.20;;;;;;;;;;5113994;28;20788;-74
2023/10/07 10:30:46;;;;;;;1.30;0.20;;;;;;;;;;5114032;28;20407;-74
2023/10/07 10:33:19;;;;;;;0.50;0.10;;;;;;;;;;5113440;28;20911;-74
2023/10/07 10:35:51;;;;;;;0.63;0.20;;;;;;;;;;5095689;28;20421;-74
2023/10/07 10:38:19;;;;;;;0.80;0.20;;;;;;;;;;5113827;28;20762;-74
2023/10/07 10:40:45;;;;;;;1.23;0.20;;;;;;;;;;5113788;28;20408;-74
2023/10/07 10:43:23;;;;;;;0.50;0.20;;;;;;;;;;5095402;28;20936;-74
2023/10/07 10:45:49;;;;;;;0.90;0.30;;;;;;;;;;5096102;28;20765;-73
2023/10/07 10:48:14;;;;;;;0.67;0.20;;;;;;;;;;5095208;28;20414;-74
2023/10/07 10:50:48;;;;;;;1.90;0.30;;;;;;;;;;5113636;28;20175;-79
2023/10/07 10:53:16;;;;;;;0.70;0.20;;;;;;;;;;5113766;28;20179;-78
2023/10/07 10:55:42;;;;;;;0.83;0.20;;;;;;;;;;5113620;28;20399;-73
2023/10/07 10:58:18;;;;;;;1.67;0.20;;;;;;;;;;5113356;28;20804;-74
2023/10/07 11:00:49;;;;;;;0.60;0.20;;;;;;;;;;5113485;28;20405;-73
2023/10/07 11:03:20;;;;;;;1.40;0.37;;;;;;;;;;5106966;28;21023;-74
2023/10/07 11:05:46;;;;;;;1.73;0.20;;;;;;;;;;5088478;28;20437;-74
2023/10/07 11:08:12;;;;;;;0.67;0.20;;;;;;;;;;5113373;28;20461;-76
2023/10/07 11:10:39;;;;;;;1.53;0.63;;;;;;;;;;5113249;28;20756;-74
2023/10/07 11:13:08;;;;;;;1.07;0.20;;;;;;;;;;5108911;28;20434;-75
2023/10/07 11:15:35;;;;;;;1.50;0.33;;;;;;;;;;5102773;28;20415;-75
2023/10/07 11:18:12;;;;;;;2.23;0.20;;;;;;;;;;5091298;28;20830;-74
2023/10/07 11:20:40;;;;;;;1.10;0.27;;;;;;;;;;5092913;28;20451;-75
2023/10/07 11:23:08;;;;;;;1.13;0.40;;;;;;;;;;5092724;28;20405;-74
2023/10/07 11:25:35;;;;;;;1.80;0.20;;;;;;;;;;5092774;28;20415;-74
2023/10/07 11:28:09;;;;;;;1.67;0.73;;;;;;;;;;5103858;28;20915;-74
2023/10/07 11:30:44;;;;;;;0.80;0.20;;;;;;;;;;5113153;28;20399;-74
2023/10/07 11:33:11;;;;;;;1.00;0.20;;;;;;;;;;5112763;28;20491;-73
2023/10/07 11:35:41;;;;;;;6.27;0.90;;;;;;;;;;5112864;28;20878;-77
2023/10/07 11:38:09;;;;;;;0.50;0.30;;;;;;;;;;5113088;28;20488;-75
2023/10/07 11:40:35;;;;;;;0.60;0.20;;;;;;;;;;5113012;28;20409;-74
2023/10/07 11:43:04;;;;;;;0.90;0.20;;;;;;;;;;5113015;28;20413;-75
2023/10/07 11:45:31;;;;;;;0.57;0.20;;;;;;;;;;5112140;28;20181;-74
2023/10/07 11:47:57;;;;;;;0.40;0.30;;;;;;;;;;5116643;28;20425;-74
2023/10/07 11:50:27;;;;;;;0.80;0.10;;;;;;;;;;5116834;28;20424;-74
2023/10/07 11:52:56;;;;;;;0.40;0.20;;;;;;;;;;5112782;28;20430;-75
2023/10/07 11:55:22;;;;;;;0.50;0.20;;;;;;;;;;5116620;28;20411;-74
2023/10/07 11:57:48;;;;;;;0.90;0.20;;;;;;;;;;5116801;28;20459;-75
2023/10/07 12:00:27;;;;;;;0.60;0.20;;;;;;;;;;5115470;28;20426;-74
2023/10/07 12:02:57;;;;;;;0.73;0.20;;;;;;;;;;5116277;28;20211;-74
2023/10/07 12:05:25;;;;;;;0.30;0.20;;;;;;;;;;5116701;28;20416;-74
2023/10/07 12:07:51;;;;;;;0.70;0.50;;;;;;;;;;5116712;28;20434;-74
2023/10/07 12:10:17;;;;;;;1.00;0.20;;;;;;;;;;5116524;28;20404;-74
2023/10/07 12:12:43;;;;;;;0.93;0.43;;;;;;;;;;5116564;28;20162;-74
2023/10/07 12:15:10;;;;;;;0.97;0.20;;;;;;;;;;5116543;28;20435;-74
2023/10/07 12:17:36;;;;;;;0.40;0.23;;;;;;;;;;5114877;28;20548;-74
2023/10/07 12:20:03;;;;;;;0.73;0.30;;;;;;;;;;5115316;28;20422;-74
2023/10/07 12:22:29;;;;;;;0.50;0.20;;;;;;;;;;5116291;28;20414;-74
2023/10/07 12:24:55;;;;;;;0.60;0.20;;;;;;;;;;5116176;28;20562;-75
2023/10/07 12:27:21;;;;;;;1.73;0.20;;;;;;;;;;5116387;28;20619;-74
2023/10/07 12:29:48;;;;;;;1.10;0.20;;;;;;;;;;5116228;28;20407;-75
2023/10/07 12:32:15;;;;;;;1.80;0.20;;;;;;;;;;5115820;28;20460;-74
2023/10/07 12:34:47;;;;;;;1.03;0.20;;;;;;;;;;5116061;28;20610;-74
2023/10/07 12:37:13;;;;;;;0.47;0.20;;;;;;;;;;5116097;28;20410;-74
2023/10/07 12:39:39;;;;;;;0.40;0.20;;;;;;;;;;5115913;28;20894;-74
2023/10/07 12:42:07;;;;;;;1.07;0.20;;;;;;;;;;5115793;28;20224;-74
2023/10/07 12:44:33;;;;;;;0.60;0.30;;;;;;;;;;5115785;28;20562;-74
2023/10/07 12:47:00;;;;;;;0.40;0.20;;;;;;;;;;5114860;28;20500;-74
2023/10/07 12:49:27;;;;;;;0.57;0.20;;;;;;;;;;5115789;28;20568;-74
2023/10/07 12:51:53;;;;;;;0.57;0.20;;;;;;;;;;5115238;28;20391;-74
2023/10/07 12:54:19;;;;;;;1.80;0.20;;;;;;;;;;5115588;28;20403;-74
2023/10/07 12:56:46;;;;;;;0.73;0.20;;;;;;;;;;5115080;28;20402;-74
2023/10/07 12:59:18;;;;;;;0.40;0.20;;;;;;;;;;5095417;28;20548;-74
2023/10/07 13:01:51;;;;;;;0.50;0.20;;;;;;;;;;5094956;28;20413;-74
2023/10/07 13:04:25;;;;;;;0.50;0.20;;;;;;;;;;5095093;28;20964;-75
2023/10/07 13:06:55;;;;;;;0.50;0.20;;;;;;;;;;5095209;28;20414;-74
2023/10/07 13:09:21;;;;;;;2.53;0.20;;;;;;;;;;5095253;28;20503;-74
2023/10/07 13:11:49;;;;;;;0.87;0.20;;;;;;;;;;5095014;28;20496;-74
2023/10/07 13:14:15;;;;;;;0.63;0.20;;;;;;;;;;5094931;28;20532;-73
2023/10/07 13:16:45;;;;;;;0.57;0.20;;;;;;;;;;5094720;28;20428;-76
2023/10/07 13:19:11;;;;;;;0.60;0.20;;;;;;;;;;5094944;28;20416;-74
2023/10/07 13:21:37;;;;;;;1.10;0.20;;;;;;;;;;5094925;28;20405;-75
2023/10/07 13:24:07;;;;;;;1.50;0.20;;;;;;;;;;5094757;28;20469;-74
2023/10/07 13:26:33;;;;;;;1.67;0.40;;;;;;;;;;5094826;28;20947;-75
2023/10/07 13:28:59;;;;;;;0.70;0.20;;;;;;;;;;5094776;28;20511;-74
2023/10/07 13:31:25;;;;;;;1.47;0.20;;;;;;;;;;5094262;28;20251;-74
2023/10/07 13:33:52;;;;;;;2.23;0.20;;;;;;;;;;5094771;28;20595;-74
2023/10/07 13:36:18;;;;;;;0.43;0.20;;;;;;;;;;5094721;28;20413;-74
2023/10/07 13:38:44;;;;;;;1.50;0.20;;;;;;;;;;5094677;28;20410;-74
2023/10/07 13:41:14;;;;;;;1.23;0.20;;;;;;;;;;5094436;28;20463;-75
2023/10/07 13:43:40;;;;;;;0.67;0.20;;;;;;;;;;5094414;28;20463;-73
2023/10/07 13:46:10;;;;;;;0.63;0.20;;;;;;;;;;5092850;28;20786;-74
2023/10/07 13:48:37;;;;;;;0.60;0.20;;;;;;;;;;5094507;28;20404;-74
2023/10/07 13:51:06;;;;;;;1.57;0.40;;;;;;;;;;5113854;28;20433;-74
2023/10/07 13:54:21;;;;;;;1.03;0.30;;;;;;;;;;5114497;28;20448;-74
2023/10/07 13:56:49;;;;;;;1.33;0.60;;;;;;;;;;5114480;28;20820;-75
2023/10/07 13:59:15;;;;;;;1.50;0.40;;;;;;;;;;5114645;28;20836;-74
2023/10/07 14:01:44;;;;;;;0.67;0.30;;;;;;;;;;5114185;28;20440;-74
2023/10/07 14:04:15;;;;;;;0.33;0.20;;;;;;;;;;5114194;28;20519;-74
2023/10/07 14:06:41;;;;;;;0.70;0.30;;;;;;;;;;5114562;28;20471;-74
2023/10/07 14:09:15;;;;;;;0.53;0.23;;;;;;;;;;5113719;28;20959;-79
2023/10/07 14:11:41;;;;;;;0.73;0.20;;;;;;;;;;5114244;28;20416;-74
2023/10/07 14:14:07;;;;;;;0.43;0.43;;;;;;;;;;5114190;28;20613;-76
2023/10/07 14:16:34;;;;;;;0.40;0.20;;;;;;;;;;5113712;28;20420;-81
2023/10/07 14:19:00;;;;;;;0.80;0.20;;;;;;;;;;5114208;28;20645;-80
2023/10/07 14:21:26;;;;;;;0.43;0.20;;;;;;;;;;5114150;28;20420;-80
2023/10/07 14:23:52;;;;;;;1.57;0.20;;;;;;;;;;5114060;28;20681;-75
2023/10/07 14:26:18;;;;;;;0.67;0.20;;;;;;;;;;5114037;28;20416;-83
2023/10/07 14:28:44;;;;;;;0.80;0.40;;;;;;;;;;5095657;28;20445;-80
2023/10/07 14:31:11;;;;;;;1.13;0.20;;;;;;;;;;5113488;28;20415;-74
2023/10/07 14:33:37;;;;;;;1.37;0.20;;;;;;;;;;5113966;28;20408;-83
2023/10/07 14:36:10;;;;;;;0.77;0.20;;;;;;;;;;5113806;28;20764;-74
2023/10/07 14:38:37;;;;;;;1.10;0.20;;;;;;;;;;5113851;28;20465;-81
2023/10/07 14:41:03;;;;;;;0.70;0.27;;;;;;;;;;5099341;28;20909;-75
2023/10/07 14:43:29;;;;;;;0.67;0.20;;;;;;;;;;5093400;28;20448;-82
2023/10/07 14:45:56;;;;;;;1.23;0.20;;;;;;;;;;5092545;28;20439;-75
2023/10/07 14:48:22;;;;;;;0.60;0.20;;;;;;;;;;5113721;28;20405;-76
2023/10/07 14:50:48;;;;;;;0.90;0.20;;;;;;;;;;5113698;28;20408;-74
2023/10/07 14:53:14;;;;;;;1.53;0.20;;;;;;;;;;5113697;28;20407;-73
2023/10/07 14:55:47;;;;;;;0.90;0.20;;;;;;;;;;5113673;28;20424;-74
2023/10/07 14:58:14;;;;;;;1.83;0.20;;;;;;;;;;5113551;28;20400;-74
2023/10/07 15:00:43;;;;;;;0.60;0.20;;;;;;;;;;5113244;28;20450;-75
2023/10/07 15:03:11;;;;;;;0.70;0.27;;;;;;;;;;5113208;28;20474;-74
2023/10/07 15:05:38;;;;;;;0.40;0.10;;;;;;;;;;5113520;28;20491;-74
2023/10/07 15:08:04;;;;;;;0.67;0.20;;;;;;;;;;5113294;28;20774;-74
2023/10/07 15:10:30;;;;;;;0.90;0.30;;;;;;;;;;5112679;28;20425;-74
2023/10/07 15:12:56;;;;;;;0.50;0.33;;;;;;;;;;5113341;28;20419;-74
2023/10/07 15:15:25;;;;;;;1.50;0.40;;;;;;;;;;5113383;28;20975;-74
2023/10/07 15:17:51;;;;;;;1.75;0.20;;;;;;;;;;5111939;28;20435;-74
2023/10/07 15:20:16;;;;;;;1.33;0.20;;;;;;;;;;5115095;28;20631;-74
2023/10/07 15:22:43;;;;;;;1.53;0.20;;;;;;;;;;5099189;28;20828;-74
2023/10/07 15:25:11;;;;;;;1.20;0.20;;;;;;;;;;5117534;28;20471;-75
2023/10/07 15:27:37;;;;;;;1.00;0.20;;;;;;;;;;5117438;28;20416;-74
2023/10/07 15:30:03;;;;;;;1.90;0.20;;;;;;;;;;5117382;28;20930;-74
2023/10/07 15:32:29;;;;;;;2.30;0.20;;;;;;;;;;5117004;28;20488;-75
2023/10/07 15:34:56;;;;;;;0.50;0.20;;;;;;;;;;5117320;28;21020;-74
2023/10/07 15:37:23;;;;;;;0.63;0.20;;;;;;;;;;5117355;28;20748;-74
2023/10/07 15:39:49;;;;;;;1.00;0.20;;;;;;;;;;5117272;28;20484;-74